sensor_id;sensor_type;location;lat;lon;timestamp;P1;durP1;ratioP1;P2;durP2;ratioP2
10013;SDS011;45684;48.358;10.746;2023-07-22T00:01:55;45.10;;;43.27;;
10013;SDS011;45684;48.358;10.746;2023-07-22T00:04:23;43.30;;;41.53;;
10013;SDS011;45684;48.358;10.746;2023-07-22T00:06:50;36.87;;;35.40;;
10013;SDS011;45684;48.358;10.746;2023-07-22T00:09:18;44.30;;;42.53;;
10013;SDS011;45684;48.358;10.746;2023-07-22T00:11:46;29.90;;;28.70;;
10013;SDS011;45684;48.358;10.746;2023-07-22T00:14:16;40.93;;;39.23;;
10013;SDS011;45684;48.358;10.746;2023-07-22T00:16:44;41.83;;;40.03;;
10013;SDS011;45684;48.358;10.746;2023-07-22T00:19:13;42.73;;;41.07;;
10013;SDS011;45684;48.358;10.746;2023-07-22T00:21:44;44.87;;;43.10;;
10013;SDS011;45684;48.358;10.746;2023-07-22T00:24:12;42.90;;;41.20;;
10013;SDS011;45684;48.358;10.746;2023-07-22T00:26:39;44.70;;;42.83;;
10013;SDS011;45684;48.358;10.746;2023-07-22T00:29:08;43.23;;;41.47;;
10013;SDS011;45684;48.358;10.746;2023-07-22T00:31:35;37.43;;;35.93;;
10013;SDS011;45684;48.358;10.746;2023-07-22T00:34:03;25.83;;;24.70;;
10013;SDS011;45684;48.358;10.746;2023-07-22T00:36:33;26.70;;;25.43;;
10013;SDS011;45684;48.358;10.746;2023-07-22T00:39:01;44.47;;;42.70;;
10013;SDS011;45684;48.358;10.746;2023-07-22T00:41:29;41.53;;;39.43;;
10013;SDS011;45684;48.358;10.746;2023-07-22T00:43:56;45.63;;;43.67;;
10013;SDS011;45684;48.358;10.746;2023-07-22T00:46:24;50.53;;;48.43;;
10013;SDS011;45684;48.358;10.746;2023-07-22T00:48:52;46.87;;;44.97;;
10013;SDS011;45684;48.358;10.746;2023-07-22T00:51:20;47.97;;;45.97;;
10013;SDS011;45684;48.358;10.746;2023-07-22T00:53:50;46.23;;;44.27;;
10013;SDS011;45684;48.358;10.746;2023-07-22T00:56:18;55.20;;;52.90;;
10013;SDS011;45684;48.358;10.746;2023-07-22T00:58:46;57.27;;;55.00;;
10013;SDS011;45684;48.358;10.746;2023-07-22T01:01:14;52.63;;;50.43;;
10013;SDS011;45684;48.358;10.746;2023-07-22T01:03:43;56.70;;;54.47;;
10013;SDS011;45684;48.358;10.746;2023-07-22T01:06:12;51.57;;;49.40;;
10013;SDS011;45684;48.358;10.746;2023-07-22T01:08:43;48.47;;;46.23;;
10013;SDS011;45684;48.358;10.746;2023-07-22T01:11:13;51.03;;;48.93;;
10013;SDS011;45684;48.358;10.746;2023-07-22T01:13:42;51.70;;;49.63;;
10013;SDS011;45684;48.358;10.746;2023-07-22T01:16:09;56.03;;;53.77;;
10013;SDS011;45684;48.358;10.746;2023-07-22T01:18:38;51.87;;;49.73;;
10013;SDS011;45684;48.358;10.746;2023-07-22T01:21:06;53.00;;;50.67;;
10013;SDS011;45684;48.358;10.746;2023-07-22T01:23:36;49.70;;;47.63;;
10013;SDS011;45684;48.358;10.746;2023-07-22T01:26:06;57.03;;;54.83;;
10013;SDS011;45684;48.358;10.746;2023-07-22T01:28:34;65.23;;;62.73;;
10013;SDS011;45684;48.358;10.746;2023-07-22T01:31:03;81.50;;;78.40;;
10013;SDS011;45684;48.358;10.746;2023-07-22T01:33:32;97.83;;;94.03;;
10013;SDS011;45684;48.358;10.746;2023-07-22T01:36:00;75.03;;;72.00;;
10013;SDS011;45684;48.358;10.746;2023-07-22T01:38:28;108.17;;;103.67;;
10013;SDS011;45684;48.358;10.746;2023-07-22T01:40:58;65.73;;;63.07;;
10013;SDS011;45684;48.358;10.746;2023-07-22T01:43:26;86.53;;;83.07;;
10013;SDS011;45684;48.358;10.746;2023-07-22T01:45:54;89.30;;;85.77;;
10013;SDS011;45684;48.358;10.746;2023-07-22T01:48:22;62.30;;;59.63;;
10013;SDS011;45684;48.358;10.746;2023-07-22T01:50:50;63.90;;;61.00;;
10013;SDS011;45684;48.358;10.746;2023-07-22T01:53:18;68.13;;;65.53;;
10013;SDS011;45684;48.358;10.746;2023-07-22T01:55:46;69.20;;;66.47;;
10013;SDS011;45684;48.358;10.746;2023-07-22T01:58:16;57.40;;;55.13;;
10013;SDS011;45684;48.358;10.746;2023-07-22T02:00:44;124.87;;;119.97;;
10013;SDS011;45684;48.358;10.746;2023-07-22T02:03:16;178.00;;;171.00;;
10013;SDS011;45684;48.358;10.746;2023-07-22T02:05:44;145.33;;;139.67;;
10013;SDS011;45684;48.358;10.746;2023-07-22T02:08:12;171.97;;;165.07;;
10013;SDS011;45684;48.358;10.746;2023-07-22T02:10:40;140.20;;;134.53;;
10013;SDS011;45684;48.358;10.746;2023-07-22T02:13:08;67.30;;;64.70;;
10013;SDS011;45684;48.358;10.746;2023-07-22T02:15:37;48.80;;;46.63;;
10013;SDS011;45684;48.358;10.746;2023-07-22T02:18:05;85.57;;;82.13;;
10013;SDS011;45684;48.358;10.746;2023-07-22T02:20:33;125.03;;;120.07;;
10013;SDS011;45684;48.358;10.746;2023-07-22T02:23:01;134.03;;;129.07;;
10013;SDS011;45684;48.358;10.746;2023-07-22T02:25:29;165.20;;;158.90;;
10013;SDS011;45684;48.358;10.746;2023-07-22T02:27:57;157.07;;;151.03;;
10013;SDS011;45684;48.358;10.746;2023-07-22T02:30:24;170.47;;;163.97;;
10013;SDS011;45684;48.358;10.746;2023-07-22T02:32:54;179.77;;;172.70;;
10013;SDS011;45684;48.358;10.746;2023-07-22T02:35:22;203.30;;;195.30;;
10013;SDS011;45684;48.358;10.746;2023-07-22T02:37:50;64.13;;;61.53;;
10013;SDS011;45684;48.358;10.746;2023-07-22T02:40:18;104.93;;;100.97;;
10013;SDS011;45684;48.358;10.746;2023-07-22T02:42:46;67.30;;;64.23;;
10013;SDS011;45684;48.358;10.746;2023-07-22T02:45:13;73.50;;;70.53;;
10013;SDS011;45684;48.358;10.746;2023-07-22T02:47:41;45.93;;;43.73;;
10013;SDS011;45684;48.358;10.746;2023-07-22T02:50:11;103.73;;;99.83;;
10013;SDS011;45684;48.358;10.746;2023-07-22T02:52:38;51.00;;;48.77;;
10013;SDS011;45684;48.358;10.746;2023-07-22T02:55:08;45.43;;;43.40;;
10013;SDS011;45684;48.358;10.746;2023-07-22T02:57:38;32.17;;;30.83;;
10013;SDS011;45684;48.358;10.746;2023-07-22T03:00:07;27.43;;;26.20;;
10013;SDS011;45684;48.358;10.746;2023-07-22T03:02:38;31.53;;;30.20;;
10013;SDS011;45684;48.358;10.746;2023-07-22T03:05:06;31.40;;;29.90;;
10013;SDS011;45684;48.358;10.746;2023-07-22T03:07:38;67.37;;;64.67;;
10013;SDS011;45684;48.358;10.746;2023-07-22T03:10:06;38.37;;;36.67;;
10013;SDS011;45684;48.358;10.746;2023-07-22T03:12:35;52.97;;;50.77;;
10013;SDS011;45684;48.358;10.746;2023-07-22T03:15:05;141.73;;;136.30;;
10013;SDS011;45684;48.358;10.746;2023-07-22T03:17:35;153.87;;;147.90;;
10013;SDS011;45684;48.358;10.746;2023-07-22T03:20:04;46.20;;;44.23;;
10013;SDS011;45684;48.358;10.746;2023-07-22T03:22:41;103.63;;;99.67;;
10013;SDS011;45684;48.358;10.746;2023-07-22T03:25:09;124.10;;;119.40;;
10013;SDS011;45684;48.358;10.746;2023-07-22T03:27:38;194.30;;;186.87;;
10013;SDS011;45684;48.358;10.746;2023-07-22T03:30:07;156.77;;;150.77;;
10013;SDS011;45684;48.358;10.746;2023-07-22T03:32:37;189.57;;;182.40;;
10013;SDS011;45684;48.358;10.746;2023-07-22T03:35:05;162.70;;;156.43;;
10013;SDS011;45684;48.358;10.746;2023-07-22T03:37:38;150.53;;;144.80;;
10013;SDS011;45684;48.358;10.746;2023-07-22T03:40:08;103.63;;;99.63;;
10013;SDS011;45684;48.358;10.746;2023-07-22T03:42:44;156.53;;;150.67;;
10013;SDS011;45684;48.358;10.746;2023-07-22T03:45:12;227.23;;;218.47;;
10013;SDS011;45684;48.358;10.746;2023-07-22T03:47:39;184.47;;;177.37;;
10013;SDS011;45684;48.358;10.746;2023-07-22T03:50:08;156.03;;;150.03;;
10013;SDS011;45684;48.358;10.746;2023-07-22T03:52:36;172.60;;;166.00;;
10013;SDS011;45684;48.358;10.746;2023-07-22T03:55:04;64.77;;;62.23;;
10013;SDS011;45684;48.358;10.746;2023-07-22T03:57:34;191.07;;;183.80;;
10013;SDS011;45684;48.358;10.746;2023-07-22T04:00:02;189.73;;;182.57;;
10013;SDS011;45684;48.358;10.746;2023-07-22T04:02:37;184.20;;;176.83;;
10013;SDS011;45684;48.358;10.746;2023-07-22T04:05:06;132.67;;;127.30;;
10013;SDS011;45684;48.358;10.746;2023-07-22T04:07:35;128.60;;;123.67;;
10013;SDS011;45684;48.358;10.746;2023-07-22T04:10:03;83.60;;;80.37;;
10013;SDS011;45684;48.358;10.746;2023-07-22T04:12:31;92.50;;;88.77;;
10013;SDS011;45684;48.358;10.746;2023-07-22T04:15:00;216.63;;;208.47;;
10013;SDS011;45684;48.358;10.746;2023-07-22T04:17:29;209.67;;;201.70;;
10013;SDS011;45684;48.358;10.746;2023-07-22T04:19:57;253.53;;;243.73;;
10013;SDS011;45684;48.358;10.746;2023-07-22T04:22:25;269.93;;;259.17;;
10013;SDS011;45684;48.358;10.746;2023-07-22T04:24:53;208.67;;;200.37;;
10013;SDS011;45684;48.358;10.746;2023-07-22T04:27:21;168.50;;;161.90;;
10013;SDS011;45684;48.358;10.746;2023-07-22T04:29:49;263.43;;;253.27;;
10013;SDS011;45684;48.358;10.746;2023-07-22T04:32:18;325.00;;;311.83;;
10013;SDS011;45684;48.358;10.746;2023-07-22T04:34:46;260.20;;;250.20;;
10013;SDS011;45684;48.358;10.746;2023-07-22T04:37:14;234.73;;;225.60;;
10013;SDS011;45684;48.358;10.746;2023-07-22T04:39:46;222.63;;;214.03;;
10013;SDS011;45684;48.358;10.746;2023-07-22T04:42:15;226.60;;;217.77;;
10013;SDS011;45684;48.358;10.746;2023-07-22T04:44:43;325.67;;;312.47;;
10013;SDS011;45684;48.358;10.746;2023-07-22T04:47:11;230.23;;;221.33;;
10013;SDS011;45684;48.358;10.746;2023-07-22T04:49:40;251.97;;;242.00;;
10013;SDS011;45684;48.358;10.746;2023-07-22T04:52:08;305.87;;;293.23;;
10013;SDS011;45684;48.358;10.746;2023-07-22T04:54:36;322.67;;;309.67;;
10013;SDS011;45684;48.358;10.746;2023-07-22T04:57:04;410.73;;;393.27;;
10013;SDS011;45684;48.358;10.746;2023-07-22T04:59:33;393.93;;;377.20;;
10013;SDS011;45684;48.358;10.746;2023-07-22T05:02:01;284.83;;;273.17;;
10013;SDS011;45684;48.358;10.746;2023-07-22T05:04:29;329.03;;;315.57;;
10013;SDS011;45684;48.358;10.746;2023-07-22T05:06:58;249.00;;;239.50;;
10013;SDS011;45684;48.358;10.746;2023-07-22T05:09:26;236.03;;;226.77;;
10013;SDS011;45684;48.358;10.746;2023-07-22T05:11:54;263.27;;;253.03;;
10013;SDS011;45684;48.358;10.746;2023-07-22T05:14:22;226.13;;;217.30;;
10013;SDS011;45684;48.358;10.746;2023-07-22T05:16:50;390.63;;;373.83;;
10013;SDS011;45684;48.358;10.746;2023-07-22T05:19:18;294.33;;;282.67;;
10013;SDS011;45684;48.358;10.746;2023-07-22T05:21:47;308.43;;;296.20;;
10013;SDS011;45684;48.358;10.746;2023-07-22T05:24:16;329.43;;;315.63;;
10013;SDS011;45684;48.358;10.746;2023-07-22T05:26:44;256.60;;;246.43;;
10013;SDS011;45684;48.358;10.746;2023-07-22T05:29:28;347.13;;;332.87;;
10013;SDS011;45684;48.358;10.746;2023-07-22T05:31:56;347.23;;;332.37;;
10013;SDS011;45684;48.358;10.746;2023-07-22T05:34:24;234.47;;;225.30;;
10013;SDS011;45684;48.358;10.746;2023-07-22T05:36:52;274.77;;;263.87;;
10013;SDS011;45684;48.358;10.746;2023-07-22T05:39:21;299.30;;;286.67;;
10013;SDS011;45684;48.358;10.746;2023-07-22T05:41:49;38.30;;;36.63;;
10013;SDS011;45684;48.358;10.746;2023-07-22T05:44:17;29.23;;;27.90;;
10013;SDS011;45684;48.358;10.746;2023-07-22T05:46:45;33.77;;;32.27;;
10013;SDS011;45684;48.358;10.746;2023-07-22T05:49:13;35.53;;;33.97;;
10013;SDS011;45684;48.358;10.746;2023-07-22T05:51:41;33.40;;;31.90;;
10013;SDS011;45684;48.358;10.746;2023-07-22T05:54:08;31.23;;;29.83;;
10013;SDS011;45684;48.358;10.746;2023-07-22T05:56:38;32.27;;;30.77;;
10013;SDS011;45684;48.358;10.746;2023-07-22T05:59:05;33.23;;;31.53;;
10013;SDS011;45684;48.358;10.746;2023-07-22T06:01:33;32.80;;;31.13;;
10013;SDS011;45684;48.358;10.746;2023-07-22T06:04:02;34.07;;;32.57;;
10013;SDS011;45684;48.358;10.746;2023-07-22T06:06:30;35.23;;;33.67;;
10013;SDS011;45684;48.358;10.746;2023-07-22T06:08:58;40.40;;;38.70;;
10013;SDS011;45684;48.358;10.746;2023-07-22T06:11:26;24.60;;;23.50;;
10013;SDS011;45684;48.358;10.746;2023-07-22T06:13:56;20.17;;;19.27;;
10013;SDS011;45684;48.358;10.746;2023-07-22T06:16:24;20.67;;;19.77;;
10013;SDS011;45684;48.358;10.746;2023-07-22T06:18:52;26.80;;;25.63;;
10013;SDS011;45684;48.358;10.746;2023-07-22T06:21:20;11.07;;;10.40;;
10013;SDS011;45684;48.358;10.746;2023-07-22T06:23:48;11.77;;;11.07;;
10013;SDS011;45684;48.358;10.746;2023-07-22T06:26:15;11.17;;;10.57;;
10013;SDS011;45684;48.358;10.746;2023-07-22T06:28:46;24.67;;;23.43;;
10013;SDS011;45684;48.358;10.746;2023-07-22T06:31:15;8.87;;;7.33;;
10013;SDS011;45684;48.358;10.746;2023-07-22T06:33:44;6.70;;;6.20;;
10013;SDS011;45684;48.358;10.746;2023-07-22T06:36:12;7.90;;;7.20;;
10013;SDS011;45684;48.358;10.746;2023-07-22T06:38:43;8.83;;;8.23;;
10013;SDS011;45684;48.358;10.746;2023-07-22T06:41:10;6.60;;;6.00;;
10013;SDS011;45684;48.358;10.746;2023-07-22T06:43:38;6.50;;;6.03;;
10013;SDS011;45684;48.358;10.746;2023-07-22T06:46:06;6.80;;;6.17;;
10013;SDS011;45684;48.358;10.746;2023-07-22T06:48:35;6.70;;;6.27;;
10013;SDS011;45684;48.358;10.746;2023-07-22T06:51:03;6.47;;;6.17;;
10013;SDS011;45684;48.358;10.746;2023-07-22T06:53:31;6.57;;;6.17;;
10013;SDS011;45684;48.358;10.746;2023-07-22T06:55:59;7.83;;;5.93;;
10013;SDS011;45684;48.358;10.746;2023-07-22T06:58:27;5.97;;;5.57;;
10013;SDS011;45684;48.358;10.746;2023-07-22T07:00:55;6.40;;;6.00;;
10013;SDS011;45684;48.358;10.746;2023-07-22T07:03:23;6.30;;;5.87;;
10013;SDS011;45684;48.358;10.746;2023-07-22T07:05:53;5.43;;;5.00;;
10013;SDS011;45684;48.358;10.746;2023-07-22T07:08:21;5.73;;;5.23;;
10013;SDS011;45684;48.358;10.746;2023-07-22T07:10:50;5.37;;;5.00;;
10013;SDS011;45684;48.358;10.746;2023-07-22T07:13:18;6.10;;;5.10;;
10013;SDS011;45684;48.358;10.746;2023-07-22T07:15:46;5.13;;;4.73;;
10013;SDS011;45684;48.358;10.746;2023-07-22T07:18:16;5.03;;;4.63;;
10013;SDS011;45684;48.358;10.746;2023-07-22T07:20:44;5.43;;;5.07;;
10013;SDS011;45684;48.358;10.746;2023-07-22T07:23:13;5.10;;;4.80;;
10013;SDS011;45684;48.358;10.746;2023-07-22T07:25:42;5.60;;;5.30;;
10013;SDS011;45684;48.358;10.746;2023-07-22T07:28:11;5.60;;;5.10;;
10013;SDS011;45684;48.358;10.746;2023-07-22T07:30:40;5.03;;;4.63;;
10013;SDS011;45684;48.358;10.746;2023-07-22T07:33:08;5.23;;;4.80;;
10013;SDS011;45684;48.358;10.746;2023-07-22T07:35:36;5.00;;;4.70;;
10013;SDS011;45684;48.358;10.746;2023-07-22T07:38:04;5.93;;;4.90;;
10013;SDS011;45684;48.358;10.746;2023-07-22T07:40:33;4.90;;;4.60;;
10013;SDS011;45684;48.358;10.746;2023-07-22T07:43:01;4.67;;;4.37;;
10013;SDS011;45684;48.358;10.746;2023-07-22T07:45:29;4.67;;;4.40;;
10013;SDS011;45684;48.358;10.746;2023-07-22T07:47:57;5.00;;;4.70;;
10013;SDS011;45684;48.358;10.746;2023-07-22T07:50:25;4.73;;;4.43;;
10013;SDS011;45684;48.358;10.746;2023-07-22T07:52:53;4.80;;;4.40;;
10013;SDS011;45684;48.358;10.746;2023-07-22T07:55:21;4.47;;;4.27;;
10013;SDS011;45684;48.358;10.746;2023-07-22T07:57:50;4.80;;;4.50;;
10013;SDS011;45684;48.358;10.746;2023-07-22T08:00:18;4.67;;;4.30;;
10013;SDS011;45684;48.358;10.746;2023-07-22T08:02:47;5.37;;;4.97;;
10013;SDS011;45684;48.358;10.746;2023-07-22T08:05:15;5.20;;;4.90;;
10013;SDS011;45684;48.358;10.746;2023-07-22T08:07:43;5.60;;;5.10;;
10013;SDS011;45684;48.358;10.746;2023-07-22T08:10:11;5.27;;;4.97;;
10013;SDS011;45684;48.358;10.746;2023-07-22T08:12:39;5.77;;;5.37;;
10013;SDS011;45684;48.358;10.746;2023-07-22T08:15:09;5.33;;;5.03;;
10013;SDS011;45684;48.358;10.746;2023-07-22T08:17:37;5.40;;;5.00;;
10013;SDS011;45684;48.358;10.746;2023-07-22T08:20:05;5.40;;;5.10;;
10013;SDS011;45684;48.358;10.746;2023-07-22T08:22:34;5.83;;;5.53;;
10013;SDS011;45684;48.358;10.746;2023-07-22T08:25:02;5.97;;;5.67;;
10013;SDS011;45684;48.358;10.746;2023-07-22T08:27:31;6.10;;;5.70;;
10013;SDS011;45684;48.358;10.746;2023-07-22T08:29:58;6.57;;;5.70;;
10013;SDS011;45684;48.358;10.746;2023-07-22T08:32:28;5.40;;;5.20;;
10013;SDS011;45684;48.358;10.746;2023-07-22T08:34:56;5.83;;;5.43;;
10013;SDS011;45684;48.358;10.746;2023-07-22T08:37:23;5.80;;;5.30;;
10013;SDS011;45684;48.358;10.746;2023-07-22T08:39:52;5.90;;;5.60;;
10013;SDS011;45684;48.358;10.746;2023-07-22T08:42:20;5.50;;;5.30;;
10013;SDS011;45684;48.358;10.746;2023-07-22T08:44:51;5.70;;;5.30;;
10013;SDS011;45684;48.358;10.746;2023-07-22T08:47:24;5.17;;;4.87;;
10013;SDS011;45684;48.358;10.746;2023-07-22T08:50:00;5.10;;;4.80;;
10013;SDS011;45684;48.358;10.746;2023-07-22T08:52:29;4.57;;;4.27;;
10013;SDS011;45684;48.358;10.746;2023-07-22T08:54:57;4.57;;;4.37;;
10013;SDS011;45684;48.358;10.746;2023-07-22T08:57:27;5.00;;;4.70;;
10013;SDS011;45684;48.358;10.746;2023-07-22T08:59:56;5.20;;;4.80;;
10013;SDS011;45684;48.358;10.746;2023-07-22T09:02:25;5.43;;;4.73;;
10013;SDS011;45684;48.358;10.746;2023-07-22T09:04:55;5.10;;;4.87;;
10013;SDS011;45684;48.358;10.746;2023-07-22T09:07:24;5.07;;;4.87;;
10013;SDS011;45684;48.358;10.746;2023-07-22T09:09:53;4.80;;;4.60;;
10013;SDS011;45684;48.358;10.746;2023-07-22T09:12:22;5.43;;;4.95;;
10013;SDS011;45684;48.358;10.746;2023-07-22T09:14:49;4.60;;;4.40;;
10013;SDS011;45684;48.358;10.746;2023-07-22T09:17:18;4.80;;;4.50;;
10013;SDS011;45684;48.358;10.746;2023-07-22T09:19:46;4.28;;;4.07;;
10013;SDS011;45684;48.358;10.746;2023-07-22T09:22:25;4.80;;;4.40;;
10013;SDS011;45684;48.358;10.746;2023-07-22T09:25:02;5.05;;;4.82;;
10013;SDS011;45684;48.358;10.746;2023-07-22T09:27:40;5.03;;;4.72;;
10013;SDS011;45684;48.358;10.746;2023-07-22T09:30:20;4.50;;;4.30;;
10013;SDS011;45684;48.358;10.746;2023-07-22T09:32:49;4.78;;;4.47;;
10013;SDS011;45684;48.358;10.746;2023-07-22T09:35:17;4.88;;;4.68;;
10013;SDS011;45684;48.358;10.746;2023-07-22T09:37:47;5.55;;;4.80;;
10013;SDS011;45684;48.358;10.746;2023-07-22T09:40:16;5.13;;;4.72;;
10013;SDS011;45684;48.358;10.746;2023-07-22T09:42:49;5.95;;;4.20;;
10013;SDS011;45684;48.358;10.746;2023-07-22T09:45:19;4.43;;;4.22;;
10013;SDS011;45684;48.358;10.746;2023-07-22T09:47:49;5.10;;;4.80;;
10013;SDS011;45684;48.358;10.746;2023-07-22T09:50:19;5.05;;;4.85;;
10013;SDS011;45684;48.358;10.746;2023-07-22T09:52:50;4.93;;;4.70;;
10013;SDS011;45684;48.358;10.746;2023-07-22T09:55:20;4.90;;;4.65;;
10013;SDS011;45684;48.358;10.746;2023-07-22T09:57:51;4.65;;;4.45;;
10013;SDS011;45684;48.358;10.746;2023-07-22T10:00:21;5.10;;;4.80;;
10013;SDS011;45684;48.358;10.746;2023-07-22T10:02:52;4.75;;;4.40;;
10013;SDS011;45684;48.358;10.746;2023-07-22T10:05:22;4.88;;;4.57;;
10013;SDS011;45684;48.358;10.746;2023-07-22T10:07:54;4.88;;;4.57;;
10013;SDS011;45684;48.358;10.746;2023-07-22T10:10:25;5.28;;;4.88;;
10013;SDS011;45684;48.358;10.746;2023-07-22T10:12:57;4.80;;;4.50;;
10013;SDS011;45684;48.358;10.746;2023-07-22T10:15:27;4.85;;;4.60;;
10013;SDS011;45684;48.358;10.746;2023-07-22T10:17:56;4.82;;;4.60;;
10013;SDS011;45684;48.358;10.746;2023-07-22T10:20:24;4.43;;;4.22;;
10013;SDS011;45684;48.358;10.746;2023-07-22T10:22:54;4.90;;;4.60;;
10013;SDS011;45684;48.358;10.746;2023-07-22T10:25:23;5.00;;;4.80;;
10013;SDS011;45684;48.358;10.746;2023-07-22T10:27:51;4.47;;;4.28;;
10013;SDS011;45684;48.358;10.746;2023-07-22T10:30:20;4.57;;;4.30;;
10013;SDS011;45684;48.358;10.746;2023-07-22T10:32:48;4.50;;;4.30;;
10013;SDS011;45684;48.358;10.746;2023-07-22T10:35:21;4.97;;;4.75;;
10013;SDS011;45684;48.358;10.746;2023-07-22T10:38:08;4.85;;;4.53;;
10013;SDS011;45684;48.358;10.746;2023-07-22T10:40:47;4.75;;;4.50;;
10013;SDS011;45684;48.358;10.746;2023-07-22T10:43:17;4.63;;;4.43;;
10013;SDS011;45684;48.358;10.746;2023-07-22T10:45:48;4.93;;;4.72;;
10013;SDS011;45684;48.358;10.746;2023-07-22T10:48:18;4.80;;;4.60;;
10013;SDS011;45684;48.358;10.746;2023-07-22T10:50:47;4.50;;;4.30;;
10013;SDS011;45684;48.358;10.746;2023-07-22T10:53:27;4.20;;;4.00;;
10013;SDS011;45684;48.358;10.746;2023-07-22T10:56:03;4.55;;;4.35;;
10013;SDS011;45684;48.358;10.746;2023-07-22T10:58:32;4.72;;;4.53;;
10013;SDS011;45684;48.358;10.746;2023-07-22T11:04:07;4.57;;;4.38;;
10013;SDS011;45684;48.358;10.746;2023-07-22T11:06:40;4.68;;;4.47;;
10013;SDS011;45684;48.358;10.746;2023-07-22T11:09:38;4.20;;;3.92;;
10013;SDS011;45684;48.358;10.746;2023-07-22T11:12:09;4.30;;;4.13;;
10013;SDS011;45684;48.358;10.746;2023-07-22T11:14:45;4.30;;;4.10;;
10013;SDS011;45684;48.358;10.746;2023-07-22T11:17:14;4.63;;;4.43;;
10013;SDS011;45684;48.358;10.746;2023-07-22T11:19:42;4.20;;;4.00;;
10013;SDS011;45684;48.358;10.746;2023-07-22T11:22:10;4.47;;;4.28;;
10013;SDS011;45684;48.358;10.746;2023-07-22T11:24:39;4.30;;;4.10;;
10013;SDS011;45684;48.358;10.746;2023-07-22T11:27:08;4.38;;;4.15;;
10013;SDS011;45684;48.358;10.746;2023-07-22T11:29:36;4.68;;;4.47;;
10013;SDS011;45684;48.358;10.746;2023-07-22T11:32:04;4.57;;;4.30;;
10013;SDS011;45684;48.358;10.746;2023-07-22T11:34:33;4.07;;;3.88;;
10013;SDS011;45684;48.358;10.746;2023-07-22T11:37:01;4.35;;;4.10;;
10013;SDS011;45684;48.358;10.746;2023-07-22T11:39:32;4.30;;;4.10;;
10013;SDS011;45684;48.358;10.746;2023-07-22T11:42:02;4.43;;;4.22;;
10013;SDS011;45684;48.358;10.746;2023-07-22T11:44:31;4.30;;;4.10;;
10013;SDS011;45684;48.358;10.746;2023-07-22T11:46:59;4.05;;;3.85;;
10013;SDS011;45684;48.358;10.746;2023-07-22T11:49:30;4.13;;;3.92;;
10013;SDS011;45684;48.358;10.746;2023-07-22T11:51:59;4.20;;;4.00;;
10013;SDS011;45684;48.358;10.746;2023-07-22T11:54:29;3.60;;;3.50;;
10013;SDS011;45684;48.358;10.746;2023-07-22T11:56:57;3.75;;;3.63;;
10013;SDS011;45684;48.358;10.746;2023-07-22T11:59:33;4.15;;;3.95;;
10013;SDS011;45684;48.358;10.746;2023-07-22T12:02:02;3.65;;;3.53;;
10013;SDS011;45684;48.358;10.746;2023-07-22T12:04:32;4.00;;;3.80;;
10013;SDS011;45684;48.358;10.746;2023-07-22T12:07:01;4.05;;;3.85;;
10013;SDS011;45684;48.358;10.746;2023-07-22T12:09:30;4.00;;;3.80;;
10013;SDS011;45684;48.358;10.746;2023-07-22T12:11:58;4.28;;;4.07;;
10013;SDS011;45684;48.358;10.746;2023-07-22T12:14:33;4.22;;;4.03;;
10013;SDS011;45684;48.358;10.746;2023-07-22T12:17:02;4.30;;;4.10;;
10013;SDS011;45684;48.358;10.746;2023-07-22T12:19:30;4.55;;;4.35;;
10013;SDS011;45684;48.358;10.746;2023-07-22T12:21:58;4.53;;;4.32;;
10013;SDS011;45684;48.358;10.746;2023-07-22T12:24:26;4.13;;;3.83;;
10013;SDS011;45684;48.358;10.746;2023-07-22T12:26:54;3.97;;;3.70;;
10013;SDS011;45684;48.358;10.746;2023-07-22T12:29:22;4.30;;;4.00;;
10013;SDS011;45684;48.358;10.746;2023-07-22T12:31:52;4.50;;;4.30;;
10013;SDS011;45684;48.358;10.746;2023-07-22T12:34:20;3.95;;;3.70;;
10013;SDS011;45684;48.358;10.746;2023-07-22T12:36:49;3.80;;;3.50;;
10013;SDS011;45684;48.358;10.746;2023-07-22T12:39:17;4.35;;;3.97;;
10013;SDS011;45684;48.358;10.746;2023-07-22T12:41:45;4.07;;;3.80;;
10013;SDS011;45684;48.358;10.746;2023-07-22T12:44:13;4.00;;;3.75;;
10013;SDS011;45684;48.358;10.746;2023-07-22T12:46:40;4.07;;;3.80;;
10013;SDS011;45684;48.358;10.746;2023-07-22T12:49:10;4.30;;;3.90;;
10013;SDS011;45684;48.358;10.746;2023-07-22T12:51:38;4.95;;;4.55;;
10013;SDS011;45684;48.358;10.746;2023-07-22T12:54:06;4.70;;;4.45;;
10013;SDS011;45684;48.358;10.746;2023-07-22T12:56:34;4.10;;;3.90;;
10013;SDS011;45684;48.358;10.746;2023-07-22T12:59:01;4.10;;;3.90;;
10013;SDS011;45684;48.358;10.746;2023-07-22T13:01:29;3.90;;;3.70;;
10013;SDS011;45684;48.358;10.746;2023-07-22T13:03:57;4.63;;;4.32;;
10013;SDS011;45684;48.358;10.746;2023-07-22T13:06:26;4.70;;;4.50;;
10013;SDS011;45684;48.358;10.746;2023-07-22T13:08:56;3.83;;;3.63;;
10013;SDS011;45684;48.358;10.746;2023-07-22T13:11:24;4.00;;;3.80;;
10013;SDS011;45684;48.358;10.746;2023-07-22T13:13:52;4.38;;;4.18;;
10013;SDS011;45684;48.358;10.746;2023-07-22T13:16:20;4.72;;;4.53;;
10013;SDS011;45684;48.358;10.746;2023-07-22T13:18:48;4.47;;;4.28;;
10013;SDS011;45684;48.358;10.746;2023-07-22T13:21:15;4.85;;;4.65;;
10013;SDS011;45684;48.358;10.746;2023-07-22T13:23:44;5.03;;;4.72;;
10013;SDS011;45684;48.358;10.746;2023-07-22T13:26:12;4.68;;;4.47;;
10013;SDS011;45684;48.358;10.746;2023-07-22T13:28:40;4.70;;;4.50;;
10013;SDS011;45684;48.358;10.746;2023-07-22T13:31:08;4.35;;;4.10;;
10013;SDS011;45684;48.358;10.746;2023-07-22T13:33:37;4.18;;;3.97;;
10013;SDS011;45684;48.358;10.746;2023-07-22T13:36:06;4.90;;;4.60;;
10013;SDS011;45684;48.358;10.746;2023-07-22T13:38:35;5.10;;;4.78;;
10013;SDS011;45684;48.358;10.746;2023-07-22T13:41:06;4.20;;;3.90;;
10013;SDS011;45684;48.358;10.746;2023-07-22T13:43:34;4.18;;;3.97;;
10013;SDS011;45684;48.358;10.746;2023-07-22T13:46:02;4.00;;;3.80;;
10013;SDS011;45684;48.358;10.746;2023-07-22T13:48:30;4.10;;;3.90;;
10013;SDS011;45684;48.358;10.746;2023-07-22T13:50:57;4.10;;;3.90;;
10013;SDS011;45684;48.358;10.746;2023-07-22T13:53:25;4.20;;;4.00;;
10013;SDS011;45684;48.358;10.746;2023-07-22T13:55:53;4.40;;;4.18;;
10013;SDS011;45684;48.358;10.746;2023-07-22T13:58:22;3.85;;;3.65;;
10013;SDS011;45684;48.358;10.746;2023-07-22T14:00:50;4.60;;;4.32;;
10013;SDS011;45684;48.358;10.746;2023-07-22T14:03:18;4.25;;;4.05;;
10013;SDS011;45684;48.358;10.746;2023-07-22T14:05:46;4.65;;;4.45;;
10013;SDS011;45684;48.358;10.746;2023-07-22T14:08:13;4.32;;;4.13;;
10013;SDS011;45684;48.358;10.746;2023-07-22T14:10:41;4.60;;;4.40;;
10013;SDS011;45684;48.358;10.746;2023-07-22T14:13:09;4.68;;;4.38;;
10013;SDS011;45684;48.358;10.746;2023-07-22T14:15:39;4.40;;;4.10;;
10013;SDS011;45684;48.358;10.746;2023-07-22T14:18:06;4.65;;;4.45;;
10013;SDS011;45684;48.358;10.746;2023-07-22T14:20:34;4.47;;;4.20;;
10013;SDS011;45684;48.358;10.746;2023-07-22T14:23:02;4.47;;;4.28;;
10013;SDS011;45684;48.358;10.746;2023-07-22T14:25:31;5.00;;;4.80;;
10013;SDS011;45684;48.358;10.746;2023-07-22T14:27:58;5.28;;;4.80;;
10013;SDS011;45684;48.358;10.746;2023-07-22T14:30:26;4.55;;;4.25;;
10013;SDS011;45684;48.358;10.746;2023-07-22T14:32:55;5.20;;;4.88;;